Time;durP1;ratioP1;P1;durP2;ratioP2;P2;SDS_P1;SDS_P2;PMS_P1;PMS_P2;Temp;Humidity;BMP_temperature;BMP_pressure;BME280_temperature;BME280_humidity;BME280_pressure;Samples;Min_cycle;Max_cycle;Signal;HPM_P1;HPM_P2
2022/05/12 00:00:01;;;;;;;9.38;6.22;;;17.40;93.90;;;;;;4753753;30;20044;-60
2022/05/12 00:02:33;;;;;;;11.13;6.63;;;17.40;93.50;;;;;;4740578;30;20056;-60
2022/05/12 00:05:02;;;;;;;10.82;6.50;;;17.40;93.60;;;;;;4755890;30;20186;-60
2022/05/12 00:07:29;;;;;;;10.63;6.53;;;17.30;93.10;;;;;;4735950;30;20047;-60
2022/05/12 00:09:56;;;;;;;9.98;6.72;;;17.30;93.60;;;;;;4749327;30;20043;-60
2022/05/12 00:12:23;;;;;;;12.25;7.28;;;17.30;94.10;;;;;;4759613;30;20052;-60
2022/05/12 00:14:50;;;;;;;11.88;6.55;;;17.20;94.20;;;;;;4757735;30;20056;-61
2022/05/12 00:17:18;;;;;;;10.93;6.28;;;17.20;94.20;;;;;;4754445;30;20535;-62
2022/05/12 00:19:45;;;;;;;11.38;6.82;;;17.20;94.20;;;;;;4754294;30;20056;-62
2022/05/12 00:22:12;;;;;;;10.07;6.47;;;17.20;94.60;;;;;;4752709;30;20059;-62
2022/05/12 00:24:39;;;;;;;10.75;6.47;;;17.10;94.70;;;;;;4752117;30;20575;-62
2022/05/12 00:27:06;;;;;;;10.07;6.70;;;17.10;94.80;;;;;;4752774;30;20054;-62
2022/05/12 00:29:33;;;;;;;11.18;6.55;;;17.10;95.10;;;;;;4753446;30;20055;-62
2022/05/12 00:32:00;;;;;;;12.48;6.80;;;17.10;95.00;;;;;;4753569;30;20040;-62
2022/05/12 00:34:27;;;;;;;10.27;6.47;;;17.00;94.60;;;;;;4740436;30;20059;-62
2022/05/12 00:36:54;;;;;;;12.45;6.10;;;17.00;95.00;;;;;;4740348;30;20056;-63
2022/05/12 00:39:22;;;;;;;10.85;5.95;;;17.00;94.90;;;;;;4754143;30;20059;-62
2022/05/12 00:41:49;;;;;;;10.55;6.75;;;17.00;95.30;;;;;;4754919;30;20051;-62
2022/05/12 00:44:16;;;;;;;9.80;6.03;;;16.90;95.50;;;;;;4754294;30;20048;-62
2022/05/12 00:46:44;;;;;;;9.20;6.05;;;16.90;95.70;;;;;;4755071;30;20058;-62
2022/05/12 00:49:15;;;;;;;12.90;6.90;;;16.80;96.00;;;;;;4757404;30;20054;-62
2022/05/12 00:52:11;;;;;;;10.45;6.45;;;16.80;96.00;;;;;;4756001;30;20050;-62
2022/05/12 00:54:49;;;;;;;11.98;6.68;;;16.80;95.80;;;;;;4737670;30;20056;-62
2022/05/12 00:57:33;;;;;;;10.55;6.47;;;16.80;95.90;;;;;;4752720;30;20692;-62
2022/05/12 01:00:05;;;;;;;10.68;6.28;;;16.80;95.80;;;;;;4751519;30;20764;-63
2022/05/12 01:02:33;;;;;;;9.27;6.72;;;16.80;96.00;;;;;;4736210;30;20071;-62
2022/05/12 01:05:01;;;;;;;11.90;7.25;;;16.70;96.10;;;;;;4755509;30;20052;-62
2022/05/12 01:07:28;;;;;;;9.75;6.32;;;16.70;95.90;;;;;;4754885;30;20061;-63
2022/05/12 01:09:56;;;;;;;10.57;6.75;;;16.60;95.90;;;;;;4752337;30;20047;-62
2022/05/12 01:12:24;;;;;;;9.18;6.68;;;16.70;96.30;;;;;;4755008;30;20389;-62
2022/05/12 01:14:51;;;;;;;10.90;6.38;;;16.60;96.40;;;;;;4758360;30;20060;-62
2022/05/12 01:17:19;;;;;;;11.00;7.03;;;16.60;96.50;;;;;;4739030;30;20048;-62
2022/05/12 01:19:48;;;;;;;10.98;6.38;;;16.60;96.60;;;;;;4754798;30;20599;-62
2022/05/12 01:22:28;;;;;;;9.52;6.13;;;16.50;96.70;;;;;;4754684;30;20059;-62
2022/05/12 01:24:55;;;;;;;11.52;6.60;;;16.50;97.50;;;;;;4742882;30;20063;-62
2022/05/12 01:27:23;;;;;;;13.15;7.30;;;16.50;97.60;;;;;;4752166;30;20485;-62
2022/05/12 01:29:53;;;;;;;9.32;6.10;;;16.40;97.40;;;;;;4750175;30;20059;-62
2022/05/12 01:32:23;;;;;;;10.57;6.43;;;16.40;97.20;;;;;;4752218;30;20048;-62
2022/05/12 01:34:54;;;;;;;9.95;6.18;;;16.40;97.50;;;;;;4737172;30;20058;-62
2022/05/12 01:37:23;;;;;;;13.20;6.60;;;16.40;97.50;;;;;;4752090;30;20066;-63
2022/05/12 01:39:51;;;;;;;11.93;6.45;;;16.40;97.40;;;;;;4752959;30;20055;-62
2022/05/12 01:42:19;;;;;;;10.13;6.57;;;16.30;97.60;;;;;;4754607;30;20040;-62
2022/05/12 01:44:46;;;;;;;10.57;6.72;;;16.30;97.70;;;;;;4755097;30;20079;-62
2022/05/12 01:47:14;;;;;;;11.20;6.15;;;16.30;97.60;;;;;;4751993;30;20055;-62
2022/05/12 01:49:41;;;;;;;9.52;6.70;;;16.30;97.80;;;;;;4748482;30;20474;-62
2022/05/12 01:52:13;;;;;;;10.23;6.75;;;16.30;98.20;;;;;;4735347;30;20745;-63
2022/05/12 01:54:40;;;;;;;10.45;6.90;;;16.20;98.10;;;;;;4740830;30;20052;-62
2022/05/12 01:57:08;;;;;;;12.48;6.82;;;16.20;98.40;;;;;;4736487;30;20063;-63
2022/05/12 01:59:35;;;;;;;12.45;6.25;;;16.20;98.30;;;;;;4750710;30;20162;-62
2022/05/12 02:02:03;;;;;;;13.23;7.20;;;16.20;98.30;;;;;;4749754;30;20059;-62
2022/05/12 02:04:30;;;;;;;13.82;7.60;;;16.10;98.30;;;;;;4740523;30;20047;-60
2022/05/12 02:06:57;;;;;;;10.57;6.68;;;16.10;98.60;;;;;;4752038;30;20055;-60
2022/05/12 02:09:25;;;;;;;9.82;6.88;;;16.10;98.20;;;;;;4751368;30;20046;-60
2022/05/12 02:11:52;;;;;;;11.80;6.95;;;16.10;98.30;;;;;;4751159;30;20191;-60
2022/05/12 02:14:19;;;;;;;14.85;7.47;;;16.10;98.30;;;;;;4752402;30;20470;-60
2022/05/12 02:16:48;;;;;;;11.13;6.68;;;16.10;98.50;;;;;;4753103;30;20056;-61
2022/05/12 02:19:15;;;;;;;8.85;6.10;;;16.00;98.20;;;;;;4751567;30;20417;-60
2022/05/12 02:21:42;;;;;;;11.30;6.88;;;16.00;98.90;;;;;;4748401;30;20063;-60
2022/05/12 02:24:09;;;;;;;11.05;6.30;;;15.90;97.90;;;;;;4752391;30;20836;-60
2022/05/12 02:26:36;;;;;;;10.82;6.47;;;15.90;97.70;;;;;;4754666;30;20075;-60
2022/05/12 02:29:04;;;;;;;11.10;6.90;;;15.90;98.20;;;;;;4751879;30;20531;-60
2022/05/12 02:31:31;;;;;;;12.55;6.60;;;15.90;98.00;;;;;;4750840;30;20062;-60
2022/05/12 02:33:58;;;;;;;11.88;7.30;;;15.90;98.20;;;;;;4751849;30;20079;-60
2022/05/12 02:36:26;;;;;;;10.75;6.60;;;15.80;98.20;;;;;;4751822;30;20056;-61
2022/05/12 02:38:53;;;;;;;12.20;6.28;;;15.80;98.20;;;;;;4752328;30;20158;-60
2022/05/12 02:41:20;;;;;;;9.98;6.45;;;15.80;98.50;;;;;;4751402;30;20083;-61
2022/05/12 02:43:47;;;;;;;10.38;6.85;;;15.80;98.60;;;;;;4751144;30;20576;-61
2022/05/12 02:46:15;;;;;;;10.77;6.70;;;15.80;98.30;;;;;;4733174;30;20058;-60
2022/05/12 02:48:45;;;;;;;9.70;6.50;;;15.80;98.40;;;;;;4752699;30;20040;-60
2022/05/12 02:51:13;;;;;;;10.15;6.35;;;15.80;98.20;;;;;;4748996;30;20139;-61
2022/05/12 02:53:40;;;;;;;11.23;7.15;;;15.80;98.00;;;;;;4751028;30;20400;-61
2022/05/12 02:56:09;;;;;;;12.27;7.15;;;15.80;98.10;;;;;;4751538;30;20060;-60
2022/05/12 02:58:38;;;;;;;13.10;6.72;;;15.70;97.80;;;;;;4753745;30;20058;-60
2022/05/12 03:01:05;;;;;;;12.60;7.07;;;15.60;97.90;;;;;;4750962;30;20609;-60
2022/05/12 03:03:33;;;;;;;11.20;7.22;;;15.60;98.20;;;;;;4753009;30;20067;-60
2022/05/12 03:06:00;;;;;;;10.90;7.03;;;15.70;98.10;;;;;;4749735;30;20044;-60
2022/05/12 03:08:27;;;;;;;11.70;7.15;;;15.70;98.30;;;;;;4754863;30;20056;-60
2022/05/12 03:10:54;;;;;;;10.80;7.03;;;15.60;98.20;;;;;;4753274;30;20043;-61
2022/05/12 03:13:23;;;;;;;12.52;7.07;;;15.60;98.40;;;;;;4736268;30;21110;-60
2022/05/12 03:15:50;;;;;;;11.38;7.57;;;15.60;98.90;;;;;;4751428;30;20047;-60
2022/05/12 03:18:18;;;;;;;12.20;7.20;;;15.50;98.50;;;;;;4752412;30;20051;-60
2022/05/12 03:20:45;;;;;;;8.90;6.35;;;15.50;98.30;;;;;;4756022;30;20047;-60
2022/05/12 03:23:13;;;;;;;10.63;6.65;;;15.50;98.50;;;;;;4753132;30;20051;-60
2022/05/12 03:25:43;;;;;;;11.80;6.78;;;15.50;98.40;;;;;;4756406;30;20206;-61
2022/05/12 03:28:11;;;;;;;9.75;6.78;;;15.50;97.90;;;;;;4756110;30;20052;-60
2022/05/12 03:30:38;;;;;;;12.15;7.07;;;15.40;98.00;;;;;;4737839;30;20060;-60
2022/05/12 03:33:06;;;;;;;12.68;6.30;;;15.40;98.10;;;;;;4739666;30;20382;-60
2022/05/12 03:35:33;;;;;;;11.73;7.07;;;15.40;98.10;;;;;;4751354;30;20044;-60
2022/05/12 03:38:00;;;;;;;11.70;7.60;;;15.40;97.80;;;;;;4733371;30;20052;-60
2022/05/12 03:40:28;;;;;;;13.40;6.70;;;15.40;98.00;;;;;;4747981;30;20047;-60
2022/05/12 03:42:58;;;;;;;12.57;7.22;;;15.40;97.90;;;;;;4750749;30;20056;-60
2022/05/12 03:45:29;;;;;;;12.10;7.90;;;15.40;97.90;;;;;;4742391;30;20522;-61
2022/05/12 03:47:57;;;;;;;11.07;7.63;;;15.40;97.70;;;;;;4755826;30;20051;-60
2022/05/12 03:50:27;;;;;;;10.57;6.85;;;15.40;98.00;;;;;;4752454;30;20054;-60
2022/05/12 03:52:55;;;;;;;13.35;7.63;;;15.40;97.90;;;;;;4751273;30;20054;-60
2022/05/12 03:55:25;;;;;;;11.50;6.93;;;15.50;98.00;;;;;;4732783;30;20051;-62
2022/05/12 03:57:55;;;;;;;13.73;7.47;;;15.50;98.30;;;;;;4749531;30;20051;-60
2022/05/12 04:00:28;;;;;;;12.40;7.53;;;15.50;97.90;;;;;;4735639;30;20055;-60
2022/05/12 04:02:56;;;;;;;11.45;7.05;;;15.60;98.10;;;;;;4750105;30;20527;-61
2022/05/12 04:05:24;;;;;;;12.70;7.22;;;15.60;98.50;;;;;;4721725;30;20059;-61
2022/05/12 04:07:51;;;;;;;14.05;7.32;;;15.60;97.90;;;;;;4749543;30;20868;-60
2022/05/12 04:10:20;;;;;;;13.55;7.75;;;15.60;97.70;;;;;;4751859;30;20489;-60
2022/05/12 04:12:48;;;;;;;13.52;7.57;;;15.60;98.50;;;;;;4753335;30;20459;-60
2022/05/12 04:15:18;;;;;;;12.35;7.25;;;15.70;98.30;;;;;;4735562;30;20054;-61
2022/05/12 04:17:58;;;;;;;14.75;7.97;;;15.70;98.60;;;;;;4734385;30;20074;-61
2022/05/12 04:20:27;;;;;;;11.65;7.15;;;15.80;98.40;;;;;;4754288;30;20075;-60
2022/05/12 04:22:55;;;;;;;12.18;7.18;;;15.80;98.60;;;;;;4749335;30;20131;-61
2022/05/12 04:25:22;;;;;;;10.95;7.13;;;15.90;98.20;;;;;;4732637;30;20102;-63
2022/05/12 04:27:50;;;;;;;12.43;7.25;;;15.90;98.20;;;;;;4752157;30;20050;-63
2022/05/12 04:30:20;;;;;;;10.45;7.45;;;16.00;98.90;;;;;;4730384;30;20067;-62
2022/05/12 04:32:47;;;;;;;12.35;7.50;;;16.00;99.20;;;;;;4756857;30;20052;-62
2022/05/12 04:35:14;;;;;;;18.02;8.40;;;16.00;99.40;;;;;;4754631;30;20048;-62
2022/05/12 04:37:47;;;;;;;12.60;7.40;;;16.10;97.50;;;;;;4751772;30;20142;-62
2022/05/12 04:40:28;;;;;;;13.90;7.63;;;16.20;97.90;;;;;;4755514;30;20076;-63
2022/05/12 04:42:57;;;;;;;12.38;7.35;;;16.20;97.40;;;;;;4754430;30;20055;-63
2022/05/12 04:45:27;;;;;;;12.10;7.90;;;16.30;98.00;;;;;;4753186;30;20980;-63
2022/05/12 04:47:55;;;;;;;15.10;7.63;;;16.40;97.90;;;;;;4752019;30;20826;-61
2022/05/12 04:50:26;;;;;;;10.02;6.63;;;16.40;97.40;;;;;;4756603;30;20083;-60
2022/05/12 04:52:54;;;;;;;14.00;7.03;;;16.50;97.30;;;;;;4756885;30;24460;-61
2022/05/12 04:55:21;;;;;;;13.77;8.27;;;16.60;97.00;;;;;;4750843;30;20054;-61
2022/05/12 04:57:50;;;;;;;11.45;6.95;;;16.60;96.90;;;;;;4737926;30;20163;-61
2022/05/12 05:00:23;;;;;;;18.38;7.97;;;16.70;97.50;;;;;;4735723;30;20059;-61
2022/05/12 05:02:51;;;;;;;14.65;6.90;;;16.80;97.30;;;;;;4723688;30;20055;-61
2022/05/12 05:05:18;;;;;;;13.75;7.63;;;16.80;97.40;;;;;;4721258;30;20048;-61
2022/05/12 05:07:45;;;;;;;13.40;7.00;;;17.00;97.00;;;;;;4725383;30;20051;-61
2022/05/12 05:10:13;;;;;;;12.93;7.13;;;17.00;95.30;;;;;;4715935;30;20100;-64
2022/05/12 05:12:41;;;;;;;11.02;7.30;;;17.10;94.70;;;;;;4716296;30;20055;-64
2022/05/12 05:15:10;;;;;;;13.45;7.72;;;17.20;94.70;;;;;;4714601;30;20060;-63
2022/05/12 05:17:40;;;;;;;16.70;7.35;;;17.30;94.80;;;;;;4702590;30;20147;-63
2022/05/12 05:20:12;;;;;;;13.68;6.60;;;17.50;94.70;;;;;;4708487;30;20047;-62
2022/05/12 05:22:39;;;;;;;18.60;7.22;;;17.60;94.30;;;;;;4706734;30;22523;-62
2022/05/12 05:25:06;;;;;;;19.88;7.70;;;17.70;94.70;;;;;;4721621;30;20063;-61
2022/05/12 05:27:35;;;;;;;16.42;7.28;;;17.80;92.50;;;;;;4719143;30;20055;-62
2022/05/12 05:30:08;;;;;;;24.80;7.80;;;17.90;92.20;;;;;;4721724;30;20101;-62
2022/05/12 05:32:35;;;;;;;15.85;6.93;;;18.10;92.30;;;;;;4723919;30;20062;-62
2022/05/12 05:35:04;;;;;;;15.05;6.53;;;18.20;92.00;;;;;;4718311;30;20150;-62
2022/05/12 05:37:31;;;;;;;11.88;6.05;;;18.30;90.60;;;;;;4724168;30;20090;-62
2022/05/12 05:39:58;;;;;;;16.77;6.80;;;18.40;90.40;;;;;;4725429;30;20047;-62
2022/05/12 05:42:25;;;;;;;11.88;6.80;;;18.60;91.20;;;;;;4724936;30;22538;-62
2022/05/12 05:44:53;;;;;;;12.60;6.18;;;18.70;91.80;;;;;;4679385;30;21661;-62
2022/05/12 05:47:21;;;;;;;15.00;6.63;;;18.90;90.80;;;;;;4721293;30;20059;-62
2022/05/12 05:49:48;;;;;;;15.00;7.22;;;19.00;89.50;;;;;;4723858;30;20090;-61
2022/05/12 05:55:01;;;;;;;13.63;6.05;;;19.30;88.70;;;;;;4722913;30;20166;-62
2022/05/12 05:57:30;;;;;;;9.38;6.00;;;19.40;88.20;;;;;;4724265;30;20051;-62
2022/05/12 05:59:59;;;;;;;11.63;5.70;;;19.50;85.20;;;;;;4722916;30;20804;-61
2022/05/12 06:02:26;;;;;;;12.13;6.10;;;19.50;84.90;;;;;;4718392;30;20056;-62
2022/05/12 06:04:53;;;;;;;11.32;5.40;;;19.70;85.80;;;;;;4722789;30;20052;-62
2022/05/12 06:07:20;;;;;;;10.30;5.22;;;19.80;84.00;;;;;;4716784;29;20128;-62
2022/05/12 06:09:48;;;;;;;9.73;5.43;;;19.80;83.90;;;;;;4707545;30;20060;-62
2022/05/12 06:12:15;;;;;;;9.73;5.07;;;20.00;84.40;;;;;;4724483;30;20052;-62
2022/05/12 06:14:42;;;;;;;8.90;5.03;;;20.20;82.40;;;;;;4717821;30;20067;-62
2022/05/12 06:17:10;;;;;;;12.02;5.80;;;20.30;85.10;;;;;;4719650;30;20055;-62
2022/05/12 06:19:37;;;;;;;7.90;5.25;;;20.30;82.10;;;;;;4721704;30;20126;-62
2022/05/12 06:22:04;;;;;;;9.80;5.13;;;20.40;82.30;;;;;;4720554;30;20054;-62
2022/05/12 06:24:31;;;;;;;13.95;5.63;;;20.50;83.30;;;;;;4725398;30;21450;-62
2022/05/12 06:27:04;;;;;;;12.45;5.47;;;20.70;81.10;;;;;;4724106;30;22839;-62
2022/05/12 06:29:31;;;;;;;11.63;5.55;;;20.80;80.90;;;;;;4721640;30;20051;-62
2022/05/12 06:32:01;;;;;;;13.25;6.68;;;20.80;80.70;;;;;;4719479;30;20051;-62
2022/05/12 06:34:29;;;;;;;13.95;5.88;;;20.90;82.30;;;;;;4721505;30;20486;-62
2022/05/12 06:36:58;;;;;;;12.02;5.35;;;21.00;80.20;;;;;;4682482;30;20717;-62
2022/05/12 06:39:26;;;;;;;10.25;5.28;;;21.20;81.10;;;;;;4721823;30;20067;-62
2022/05/12 06:41:53;;;;;;;10.65;5.88;;;21.20;79.60;;;;;;4707639;30;20055;-62
2022/05/12 06:44:25;;;;;;;13.43;6.15;;;21.30;80.50;;;;;;4695299;30;20516;-62
2022/05/12 06:46:52;;;;;;;11.40;5.88;;;21.40;79.30;;;;;;4696414;30;20066;-62
2022/05/12 06:49:20;;;;;;;9.82;5.85;;;21.50;77.10;;;;;;4709177;30;20925;-62
2022/05/12 06:51:47;;;;;;;11.73;6.53;;;21.60;78.70;;;;;;4721595;30;20147;-62
2022/05/12 06:54:15;;;;;;;9.68;5.50;;;21.70;77.50;;;;;;4720738;30;21723;-62
2022/05/12 06:56:42;;;;;;;9.38;5.20;;;21.90;78.40;;;;;;4718720;30;20055;-63
2022/05/12 06:59:09;;;;;;;12.85;5.47;;;21.90;76.30;;;;;;4720724;30;20055;-62
2022/05/12 07:01:37;;;;;;;8.25;4.75;;;21.90;74.80;;;;;;4719855;30;20098;-63
2022/05/12 07:04:04;;;;;;;9.43;5.28;;;22.10;74.70;;;;;;4696723;30;20068;-62
2022/05/12 07:06:32;;;;;;;14.00;5.72;;;22.10;73.30;;;;;;4700342;30;20094;-63
2022/05/12 07:08:59;;;;;;;13.07;5.97;;;22.10;72.80;;;;;;4691404;30;22501;-63
2022/05/12 07:11:26;;;;;;;7.72;4.72;;;22.20;76.70;;;;;;4720970;30;20138;-62
2022/05/12 07:13:54;;;;;;;10.38;5.30;;;22.20;74.60;;;;;;4710650;30;20067;-62
2022/05/12 07:16:21;;;;;;;9.88;4.70;;;22.30;73.40;;;;;;4697500;30;20087;-62
2022/05/12 07:18:49;;;;;;;11.05;5.30;;;22.40;73.10;;;;;;4723080;30;20055;-62
2022/05/12 07:26:52;;;;;;;10.43;4.45;;;22.70;75.70;;;;;;4720071;30;20155;-62
2022/05/12 07:29:23;;;;;;;10.05;4.75;;;22.90;74.90;;;;;;4715465;30;20043;-62
2022/05/12 07:31:50;;;;;;;6.60;4.47;;;23.00;75.00;;;;;;4722496;30;20063;-63
2022/05/12 07:34:18;;;;;;;10.85;5.50;;;23.10;73.50;;;;;;4722528;30;22574;-63
2022/05/12 07:36:50;;;;;;;9.90;4.32;;;23.00;73.60;;;;;;4720520;30;20048;-63
2022/05/12 07:39:18;;;;;;;;;;;23.10;74.30;;;;;;4696129;30;20067;-63
2022/05/12 07:41:45;;;;;;;9.13;4.43;;;23.20;71.60;;;;;;4713362;30;19941;-62
2022/05/12 07:44:19;;;;;;;10.02;4.45;;;23.20;70.70;;;;;;4714138;30;24400;-63
2022/05/12 07:46:47;;;;;;;11.30;5.13;;;23.30;73.60;;;;;;4702455;30;20055;-63
2022/05/12 07:49:15;;;;;;;14.20;4.47;;;23.50;71.80;;;;;;4704041;30;20047;-63
2022/05/12 07:51:47;;;;;;;9.20;4.78;;;23.50;70.90;;;;;;4722916;30;20055;-63
2022/05/12 07:54:15;;;;;;;7.30;4.45;;;23.60;71.20;;;;;;4719141;30;20051;-63
2022/05/12 07:56:42;;;;;;;9.05;4.50;;;23.70;72.40;;;;;;4715699;30;20098;-63
2022/05/12 07:59:09;;;;;;;8.63;4.60;;;23.80;71.30;;;;;;4709443;30;20113;-63
2022/05/12 08:01:38;;;;;;;9.27;4.75;;;23.80;71.20;;;;;;4716619;29;20051;-63
2022/05/12 08:04:05;;;;;;;7.82;4.80;;;23.80;69.10;;;;;;4721842;30;20087;-63
2022/05/12 08:06:33;;;;;;;11.02;4.70;;;23.80;72.10;;;;;;4719878;30;20127;-63
2022/05/12 08:09:01;;;;;;;13.38;4.53;;;24.00;70.20;;;;;;4719016;30;22497;-64
2022/05/12 08:11:28;;;;;;;16.17;4.60;;;24.10;69.00;;;;;;4720812;30;20062;-63
2022/05/12 08:13:56;;;;;;;8.88;4.90;;;24.20;69.10;;;;;;4723355;30;20071;-63
2022/05/12 08:16:23;;;;;;;7.93;4.50;;;24.20;69.50;;;;;;4706337;30;20059;-63
2022/05/12 08:18:51;;;;;;;7.15;4.45;;;24.30;69.20;;;;;;4717001;30;20063;-63
2022/05/12 08:21:19;;;;;;;9.93;4.90;;;24.30;68.70;;;;;;4723659;30;20063;-63
2022/05/12 08:23:47;;;;;;;11.07;5.03;;;24.40;68.30;;;;;;4721839;30;20063;-63
2022/05/12 08:26:15;;;;;;;10.88;4.75;;;24.40;69.30;;;;;;4721947;30;22164;-65
2022/05/12 08:28:42;;;;;;;6.07;4.10;;;24.50;66.70;;;;;;4721869;30;20130;-64
2022/05/12 08:31:10;;;;;;;9.38;4.25;;;24.60;70.40;;;;;;4719444;30;20055;-64
2022/05/12 08:33:38;;;;;;;9.30;4.60;;;24.60;66.50;;;;;;4723525;30;20052;-63
2022/05/12 08:36:06;;;;;;;9.85;4.68;;;24.70;68.40;;;;;;4691065;30;20055;-64
2022/05/12 08:38:34;;;;;;;13.85;4.72;;;24.80;67.90;;;;;;4719781;29;20060;-64
2022/05/12 08:41:04;;;;;;;8.77;3.60;;;24.80;64.80;;;;;;4720962;30;20554;-63
2022/05/12 08:43:43;;;;;;;8.57;4.03;;;25.00;67.70;;;;;;4721525;30;20055;-63
2022/05/12 08:46:17;;;;;;;9.57;4.15;;;25.10;63.80;;;;;;4721632;30;20066;-63
2022/05/12 08:48:45;;;;;;;7.55;3.33;;;25.00;64.20;;;;;;4718676;30;20799;-62
2022/05/12 08:51:18;;;;;;;10.23;4.15;;;25.10;62.30;;;;;;4720237;30;20055;-64
2022/05/12 08:53:55;;;;;;;9.48;3.50;;;25.10;62.80;;;;;;4722876;30;20093;-64
2022/05/12 08:56:23;;;;;;;7.75;4.78;;;25.10;61.90;;;;;;4723795;30;20051;-65
2022/05/12 08:58:54;;;;;;;8.77;4.18;;;25.30;61.30;;;;;;4723840;30;20051;-63
2022/05/12 09:01:52;;;;;;;5.78;3.30;;;25.30;62.50;;;;;;4724079;30;20062;-63
2022/05/12 09:04:38;;;;;;;7.22;3.60;;;25.40;63.10;;;;;;4721955;30;20098;-62
2022/05/12 09:07:22;;;;;;;10.70;4.50;;;25.40;63.20;;;;;;4722671;30;20063;-63
2022/05/12 09:10:08;;;;;;;13.43;4.20;;;25.40;62.50;;;;;;4720043;30;20051;-62
2022/05/12 09:13:15;;;;;;;8.40;3.45;;;25.40;62.60;;;;;;4721354;30;20058;-62
2022/05/12 09:15:51;;;;;;;9.23;3.90;;;25.50;61.90;;;;;;4718759;30;20109;-63
2022/05/12 09:18:26;;;;;;;9.93;3.60;;;25.60;63.00;;;;;;4718839;30;20093;-63
2022/05/12 09:20:58;;;;;;;6.78;3.58;;;25.60;61.60;;;;;;4718843;30;20066;-65
2022/05/12 09:23:25;;;;;;;8.70;3.17;;;25.70;64.90;;;;;;4722267;30;22597;-64
2022/05/12 09:25:52;;;;;;;8.02;4.00;;;25.70;62.00;;;;;;4701690;30;20064;-62
2022/05/12 09:28:33;;;;;;;8.93;3.58;;;25.70;62.90;;;;;;4703100;30;20079;-62
2022/05/12 09:31:17;;;;;;;6.82;3.83;;;25.80;63.20;;;;;;4722720;30;20055;-63
2022/05/12 09:33:47;;;;;;;10.65;3.90;;;25.90;65.00;;;;;;4723815;30;22615;-62
2022/05/12 09:36:22;;;;;;;8.48;4.40;;;25.90;63.30;;;;;;4706247;30;20080;-63
2022/05/12 09:38:54;;;;;;;11.95;4.80;;;25.90;63.00;;;;;;4719034;30;22721;-62
2022/05/12 09:41:37;;;;;;;10.35;4.10;;;25.90;62.10;;;;;;4718281;30;20284;-64
2022/05/12 09:44:23;;;;;;;5.63;3.42;;;25.90;60.50;;;;;;4724897;30;20055;-62
2022/05/12 09:47:03;;;;;;;7.38;4.00;;;25.90;61.90;;;;;;4710706;30;20059;-62
2022/05/12 09:49:40;;;;;;;8.02;3.85;;;26.00;63.40;;;;;;4721798;30;20184;-62
2022/05/12 09:52:31;;;;;;;7.90;3.45;;;26.00;62.10;;;;;;4713012;30;20051;-62
2022/05/12 09:55:11;;;;;;;8.32;4.07;;;26.00;62.30;;;;;;4719123;30;20059;-62
2022/05/12 09:58:02;;;;;;;9.52;4.28;;;26.10;62.70;;;;;;4702357;30;20052;-61
2022/05/12 10:00:58;;;;;;;8.45;4.32;;;26.10;62.00;;;;;;4718460;30;20063;-63
2022/05/12 10:09:07;;;;;;;13.35;3.90;;;26.30;64.60;;;;;;4715931;30;20516;-63
2022/05/12 10:11:41;;;;;;;6.40;3.60;;;26.40;65.30;;;;;;4717685;30;20773;-62
2022/05/12 10:14:23;;;;;;;9.23;5.05;;;26.40;63.10;;;;;;4722107;30;22850;-63
2022/05/12 10:16:53;;;;;;;7.93;4.07;;;26.30;62.60;;;;;;4708720;30;20110;-63
2022/05/12 10:19:22;;;;;;;8.10;3.92;;;26.40;63.50;;;;;;4725103;30;20055;-64
2022/05/12 10:22:10;;;;;;;6.03;3.72;;;26.40;62.50;;;;;;4725651;30;22494;-62
2022/05/12 10:24:52;;;;;;;7.68;4.32;;;26.60;63.80;;;;;;4722544;29;20051;-62
2022/05/12 10:27:38;;;;;;;10.88;3.95;;;26.60;62.80;;;;;;4725482;30;20062;-62
2022/05/12 10:30:15;;;;;;;10.50;4.65;;;26.50;61.90;;;;;;4723468;30;20808;-62
2022/05/12 10:32:48;;;;;;;9.93;4.15;;;26.50;63.70;;;;;;4720688;30;20052;-62
2022/05/12 10:35:35;;;;;;;9.07;3.47;;;26.60;64.50;;;;;;4712175;30;20059;-62
2022/05/12 10:38:05;;;;;;;5.45;3.63;;;26.70;62.30;;;;;;4723162;30;20192;-62
2022/05/12 10:40:56;;;;;;;7.03;3.85;;;26.70;60.70;;;;;;4721153;30;20152;-62
2022/05/12 10:43:46;;;;;;;9.70;3.83;;;26.80;61.50;;;;;;4716367;30;22557;-63
2022/05/12 10:46:23;;;;;;;7.13;4.13;;;26.80;60.20;;;;;;4717275;30;20063;-62
2022/05/12 10:49:20;;;;;;;11.85;3.80;;;26.90;62.20;;;;;;4710937;30;20067;-62
2022/05/12 10:51:59;;;;;;;4.88;3.33;;;27.00;61.20;;;;;;4697197;30;20052;-62
2022/05/12 10:54:26;;;;;;;7.38;3.95;;;27.00;62.40;;;;;;4719968;30;20055;-63
2022/05/12 10:57:35;;;;;;;7.38;4.20;;;27.00;61.70;;;;;;4717588;30;22417;-63
2022/05/12 11:00:23;;;;;;;9.93;3.97;;;27.00;61.30;;;;;;4719323;30;20066;-62
2022/05/12 11:02:55;;;;;;;7.07;3.83;;;27.00;60.70;;;;;;4719467;30;20055;-63
2022/05/12 11:05:37;;;;;;;7.43;3.75;;;27.10;59.90;;;;;;4720355;30;20063;-64
2022/05/12 11:08:17;;;;;;;9.73;4.10;;;27.10;62.00;;;;;;4719591;30;20060;-63
2022/05/12 11:11:02;;;;;;;6.25;3.85;;;27.10;61.60;;;;;;4711024;30;22554;-65
2022/05/12 11:13:40;;;;;;;7.22;4.15;;;27.10;60.70;;;;;;4690236;30;22971;-64
2022/05/12 11:16:15;;;;;;;8.15;3.67;;;27.10;60.20;;;;;;4717812;30;20055;-63
2022/05/12 11:19:05;;;;;;;7.63;3.38;;;27.20;62.30;;;;;;4716077;30;20056;-63
2022/05/12 11:21:57;;;;;;;7.22;3.40;;;27.40;59.50;;;;;;4721768;30;20144;-63
2022/05/12 11:24:56;;;;;;;65.90;8.02;;;27.40;59.90;;;;;;4676020;30;20063;-63
2022/05/12 11:27:48;;;;;;;9.50;3.75;;;27.50;60.80;;;;;;4721981;30;20058;-63
2022/05/12 11:30:33;;;;;;;11.32;4.13;;;27.60;59.90;;;;;;4719409;30;22475;-63
2022/05/12 11:33:06;;;;;;;6.45;3.60;;;27.60;60.20;;;;;;4719181;30;22508;-62
2022/05/12 11:35:45;;;;;;;5.35;3.33;;;27.50;60.00;;;;;;4717777;30;20052;-63
2022/05/12 11:38:37;;;;;;;7.45;4.03;;;27.60;59.40;;;;;;4722239;29;20058;-64
2022/05/12 11:41:07;;;;;;;6.43;3.28;;;27.70;57.00;;;;;;4722873;30;20154;-63
2022/05/12 11:46:30;;;;;;;11.63;4.15;;;27.70;59.80;;;;;;4720351;30;20911;-63
2022/05/12 11:49:22;;;;;;;7.70;3.80;;;27.70;59.80;;;;;;4705381;30;20101;-63
2022/05/12 11:52:22;;;;;;;6.30;3.30;;;27.70;57.90;;;;;;4714143;30;20439;-64
2022/05/12 11:55:20;;;;;;;6.15;3.22;;;27.80;60.10;;;;;;4721875;30;20052;-63
2022/05/12 11:57:59;;;;;;;5.15;3.17;;;27.80;56.90;;;;;;4703050;30;20063;-64
2022/05/12 12:00:35;;;;;;;7.10;3.10;;;27.90;59.40;;;;;;4716033;30;20060;-63
2022/05/12 12:03:22;;;;;;;7.25;3.30;;;28.00;59.30;;;;;;4718712;30;20060;-63
2022/05/12 12:05:49;;;;;;;6.53;3.17;;;28.10;57.40;;;;;;4719137;30;20183;-64
2022/05/12 12:08:40;;;;;;;3.97;3.17;;;28.10;54.00;;;;;;4717731;30;20083;-63
2022/05/12 12:11:13;;;;;;;8.43;3.30;;;28.00;54.80;;;;;;4719995;30;20051;-63
2022/05/12 12:13:50;;;;;;;8.73;3.53;;;28.00;56.70;;;;;;4721782;30;20066;-63
2022/05/12 12:16:48;;;;;;;3.92;3.10;;;28.00;53.80;;;;;;4727971;29;20062;-63
2022/05/12 12:19:49;;;;;;;4.63;3.03;;;27.90;58.20;;;;;;4723767;30;20055;-64
2022/05/12 12:22:25;;;;;;;5.38;3.03;;;28.00;55.20;;;;;;4721112;30;20100;-63
2022/05/12 12:24:58;;;;;;;7.20;3.08;;;28.00;56.50;;;;;;4710939;30;20055;-63
2022/05/12 12:27:46;;;;;;;7.30;3.15;;;28.10;56.90;;;;;;4716796;30;20155;-63
2022/05/12 12:30:36;;;;;;;6.63;2.95;;;28.00;54.60;;;;;;4705501;30;20634;-63
2022/05/12 12:33:09;;;;;;;5.72;3.00;;;28.00;56.40;;;;;;4704138;30;20058;-64
2022/05/12 12:36:00;;;;;;;4.95;2.90;;;28.20;55.80;;;;;;4711741;30;20063;-66
2022/05/12 12:38:46;;;;;;;10.70;3.17;;;28.30;55.70;;;;;;4712150;30;20140;-64
2022/05/12 12:41:30;;;;;;;7.88;3.38;;;28.40;54.10;;;;;;4709806;30;20056;-63
2022/05/12 12:43:57;;;;;;;6.43;3.72;;;28.30;54.10;;;;;;4727360;30;20102;-63
2022/05/12 12:46:34;;;;;;;5.32;3.10;;;28.20;55.50;;;;;;4723612;30;20066;-64
2022/05/12 12:49:24;;;;;;;4.20;3.15;;;28.30;55.50;;;;;;4723030;30;20135;-63
2022/05/12 12:51:58;;;;;;;4.15;3.10;;;28.30;55.80;;;;;;4723447;30;20056;-63
2022/05/12 12:57:40;;;;;;;6.53;3.30;;;28.50;56.30;;;;;;4710957;30;20150;-63
2022/05/12 13:00:14;;;;;;;5.78;3.22;;;28.60;55.60;;;;;;4722203;30;20059;-64
2022/05/12 13:02:44;;;;;;;4.85;3.10;;;28.70;56.60;;;;;;4723676;30;20858;-63
2022/05/12 13:05:19;;;;;;;4.60;3.28;;;28.80;56.50;;;;;;4727078;30;20047;-63
2022/05/12 13:08:30;;;;;;;6.90;3.25;;;28.80;54.70;;;;;;4713328;30;22562;-63
2022/05/12 13:11:01;;;;;;;7.70;3.40;;;28.90;55.50;;;;;;4676798;30;20071;-64
2022/05/12 13:13:28;;;;;;;7.18;3.30;;;28.80;56.30;;;;;;4720254;30;20051;-64
2022/05/12 13:16:02;;;;;;;4.57;3.08;;;28.70;55.30;;;;;;4722343;30;20103;-64
2022/05/12 13:18:50;;;;;;;7.18;3.28;;;28.70;56.90;;;;;;4707083;30;20063;-64
2022/05/12 13:21:32;;;;;;;6.97;3.60;;;28.80;55.60;;;;;;4716335;30;20140;-64
2022/05/12 13:24:19;;;;;;;9.45;3.83;;;28.90;54.60;;;;;;4721141;30;20058;-63
2022/05/12 13:26:48;;;;;;;8.85;2.65;;;28.90;55.70;;;;;;4721041;30;22587;-66